Time;durP1;ratioP1;P1;durP2;ratioP2;P2;SDS_P1;SDS_P2;PMS_P1;PMS_P2;Temp;Humidity;BMP_temperature;BMP_pressure;BME280_temperature;BME280_humidity;BME280_pressure;Samples;Min_cycle;Max_cycle;Signal;HPM_P1;HPM_P2
2023/12/18 00:01:36;;;;;;;;;25.50;21.25;;;;;-146.67;58.44;77701.50;5099112;28;38373;-74
2023/12/18 00:04:03;;;;;;;;;34.00;25.00;;;;;-146.67;58.19;77705.50;5100594;27;38609;-74
2023/12/18 00:06:29;;;;;;;;;23.50;20.50;;;;;-146.67;58.04;77707.50;5100405;27;38156;-74
2023/12/18 00:08:54;;;;;;;;;25.50;9.50;;;;;-146.67;57.54;77707.50;5100117;28;38468;-74
2023/12/18 00:11:21;;;;;;;;;21.25;18.25;;;;;-146.67;57.51;77715.47;5100034;27;37861;-74
2023/12/18 00:13:46;;;;;;;;;12.75;12.50;;;;;-146.67;57.74;77713.47;5099211;28;38634;-74
2023/12/18 00:16:12;;;;;;;;;21.25;15.50;;;;;-146.67;57.63;77719.47;5108716;27;37981;-74
2023/12/18 00:18:37;;;;;;;;;29.50;18.25;;;;;-146.67;57.22;77727.47;5121060;27;38234;-74
2023/12/18 00:21:03;;;;;;;;;23.25;18.00;;;;;-146.67;57.22;77737.47;5120339;27;37851;-74
2023/12/18 00:23:28;;;;;;;;;21.25;20.00;;;;;-146.67;57.32;77739.47;5121291;27;38334;-74
2023/12/18 00:25:54;;;;;;;;;21.00;17.25;;;;;-146.67;57.65;77753.44;5119697;27;38236;-74
2023/12/18 00:28:19;;;;;;;;;23.00;16.00;;;;;-146.67;58.29;77763.44;5118996;27;37793;-74
2023/12/18 00:30:44;;;;;;;;;28.00;13.75;;;;;-146.67;58.39;77759.44;5120884;27;38453;-74
2023/12/18 00:33:10;;;;;;;;;24.00;17.00;;;;;-146.67;58.00;77749.44;5120887;27;37830;-74
2023/12/18 00:35:35;;;;;;;;;27.50;20.25;;;;;-146.67;57.93;77757.44;5117016;27;38282;-74
2023/12/18 00:38:00;;;;;;;;;23.00;17.50;;;;;-146.67;57.83;77757.44;5099954;27;38389;-74
2023/12/18 00:40:26;;;;;;;;;22.75;18.50;;;;;-146.67;57.89;77759.44;5099751;27;38446;-74
2023/12/18 00:42:51;;;;;;;;;20.00;18.00;;;;;-146.67;57.82;77759.44;5100011;28;38461;-74
2023/12/18 00:45:17;;;;;;;;;27.00;18.50;;;;;-146.67;57.62;77749.44;5099155;27;39161;-74
2023/12/18 00:47:42;;;;;;;;;23.25;18.25;;;;;-146.67;57.54;77739.47;5099919;28;38203;-74
2023/12/18 00:50:09;;;;;;;;;27.75;22.00;;;;;-146.67;57.72;77761.44;5099296;28;38376;-74
2023/12/18 00:52:38;;;;;;;;;23.25;17.50;;;;;-146.67;57.81;77747.44;5100184;27;37732;-74
2023/12/18 00:55:05;;;;;;;;;29.75;20.75;;;;;-146.67;57.48;77735.47;5098801;28;38262;-74
2023/12/18 00:57:31;;;;;;;;;19.50;15.25;;;;;-146.67;57.75;77741.47;5099670;28;38328;-74
2023/12/18 00:59:56;;;;;;;;;22.50;19.25;;;;;-146.67;57.63;77737.47;5094383;27;37842;-74
2023/12/18 01:02:21;;;;;;;;;16.75;10.00;;;;;-146.67;57.20;77729.47;5114858;27;38850;-74
2023/12/18 01:04:47;;;;;;;;;23.00;18.00;;;;;-146.67;57.30;77729.47;5099233;27;39194;-74
2023/12/18 01:07:12;;;;;;;;;28.50;19.25;;;;;-146.67;57.23;77727.47;5114818;27;38286;-74
2023/12/18 01:09:37;;;;;;;;;27.00;17.00;;;;;-146.67;57.32;77721.47;5099364;28;38280;-74
2023/12/18 01:12:03;;;;;;;;;18.25;16.25;;;;;-146.67;56.95;77717.47;5101126;28;38576;-74
2023/12/18 01:14:29;;;;;;;;;26.75;16.75;;;;;-146.67;56.89;77713.47;5102278;28;38402;-74
2023/12/18 01:16:54;;;;;;;;;20.25;18.75;;;;;-146.67;56.93;77713.47;5102939;28;38661;-74
2023/12/18 01:19:20;;;;;;;;;21.50;17.25;;;;;-146.67;57.19;77713.47;5101630;27;38615;-74
2023/12/18 01:21:46;;;;;;;;;20.00;15.25;;;;;-146.67;57.23;77715.47;5102955;28;37693;-74
2023/12/18 01:24:11;;;;;;;;;27.50;17.50;;;;;-146.67;57.00;77715.47;5102467;28;39158;-74
2023/12/18 01:26:37;;;;;;;;;15.75;15.75;;;;;-146.67;56.71;77717.47;5102559;28;37726;-74
2023/12/18 01:29:03;;;;;;;;;20.75;19.00;;;;;-146.67;56.91;77717.47;5103235;27;38452;-74
2023/12/18 01:31:28;;;;;;;;;21.00;15.50;;;;;-146.67;56.74;77721.47;5102609;28;37872;-74
2023/12/18 01:33:54;;;;;;;;;21.25;14.00;;;;;-146.67;57.12;77725.47;5102624;27;38441;-74
2023/12/18 01:36:19;;;;;;;;;19.25;16.75;;;;;-146.67;56.88;77727.47;5102314;27;38444;-74
2023/12/18 01:38:45;;;;;;;;;16.50;13.25;;;;;-146.67;56.72;77737.47;5102722;28;37658;-74
2023/12/18 01:41:11;;;;;;;;;22.25;16.50;;;;;-146.67;56.65;77753.44;5103213;28;38384;-74
2023/12/18 01:43:37;;;;;;;;;15.75;13.25;;;;;-146.67;56.38;77755.44;5118020;27;39889;-74
2023/12/18 01:46:03;;;;;;;;;23.50;17.50;;;;;-146.67;56.79;77757.44;5102345;28;38449;-74
2023/12/18 01:48:30;;;;;;;;;13.50;13.50;;;;;-146.67;56.52;77751.44;5107656;27;38637;-74
2023/12/18 01:50:57;;;;;;;;;24.00;18.25;;;;;-146.67;56.46;77745.44;5105890;27;38525;-74
2023/12/18 01:53:31;;;;;;;;;28.50;15.75;;;;;-146.67;56.61;77753.44;5102317;27;39214;-74
2023/12/18 01:55:57;;;;;;;;;25.75;18.00;;;;;-146.67;56.68;77751.44;5102320;28;37918;-74
2023/12/18 01:58:24;;;;;;;;;19.50;16.25;;;;;-146.67;56.46;77747.44;5102384;28;38296;-74
2023/12/18 02:00:51;;;;;;;;;21.00;12.50;;;;;-146.67;56.56;77751.44;5117867;27;38232;-74
2023/12/18 02:03:19;;;;;;;;;29.25;23.50;;;;;-146.67;56.15;77751.44;5102146;27;37960;-74
2023/12/18 02:05:44;;;;;;;;;21.00;18.00;;;;;-146.67;56.23;77763.44;5101968;28;38300;-74
2023/12/18 02:08:10;;;;;;;;;17.75;15.00;;;;;-146.67;56.35;77769.44;5083998;28;38486;-74
2023/12/18 02:10:37;;;;;;;;;18.50;14.00;;;;;-146.67;56.80;77763.44;5114425;27;38516;-74
2023/12/18 02:13:02;;;;;;;;;21.25;17.25;;;;;-146.67;56.79;77757.44;5081558;28;39874;-74
2023/12/18 02:15:28;;;;;;;;;21.00;18.50;;;;;-146.67;56.87;77747.44;5081627;28;37722;-74
2023/12/18 02:17:53;;;;;;;;;25.75;17.00;;;;;-146.67;56.42;77739.47;5082146;28;38411;-74
2023/12/18 02:20:18;;;;;;;;;20.75;15.75;;;;;-146.67;56.30;77737.47;5113936;27;37989;-74
2023/12/18 02:22:53;;;;;;;;;17.00;14.25;;;;;-146.67;56.07;77731.47;5081017;28;38479;-74
2023/12/18 02:25:19;;;;;;;;;23.00;18.75;;;;;-146.67;56.41;77737.47;5081528;28;38365;-74
2023/12/18 02:27:45;;;;;;;;;29.00;16.50;;;;;-146.67;56.34;77727.47;5081627;28;38169;-74
2023/12/18 02:30:15;;;;;;;;;14.75;13.00;;;;;-146.67;56.22;77725.47;5082000;28;38174;-74
2023/12/18 02:32:41;;;;;;;;;24.00;16.50;;;;;-146.67;56.18;77731.47;5081342;28;38158;-74
2023/12/18 02:35:07;;;;;;;;;18.25;15.75;;;;;-146.67;56.33;77743.47;5084724;28;38355;-74
2023/12/18 02:37:32;;;;;;;;;22.25;17.25;;;;;-146.67;56.57;77761.44;5090969;28;61896;-74
2023/12/18 02:39:58;;;;;;;;;25.25;15.75;;;;;-146.67;56.57;77783.41;5084096;27;62667;-74
2023/12/18 02:42:23;;;;;;;;;15.25;9.75;;;;;-146.67;56.81;77775.44;5083616;28;61911;-74
2023/12/18 02:44:48;;;;;;;;;19.25;16.50;;;;;-146.67;56.66;77769.44;5084195;27;61831;-74
2023/12/18 02:47:14;;;;;;;;;22.00;15.50;;;;;-146.67;56.75;77761.44;5107321;27;61246;-74
2023/12/18 02:49:39;;;;;;;;;21.25;14.50;;;;;-146.67;56.13;77767.44;5074709;28;61025;-74
2023/12/18 02:52:05;;;;;;;;;20.00;16.75;;;;;-146.67;56.72;77771.44;5072666;28;61751;-74
2023/12/18 02:54:30;;;;;;;;;21.75;16.00;;;;;-146.67;56.56;77763.44;5072053;28;62020;-74
2023/12/18 02:56:55;;;;;;;;;20.00;17.00;;;;;-146.67;56.64;77753.44;5079181;28;61542;-74
2023/12/18 02:59:21;;;;;;;;;15.25;14.00;;;;;-146.67;56.76;77747.44;5096112;28;62047;-74
2023/12/18 03:01:46;;;;;;;;;23.25;17.75;;;;;-146.67;56.31;77759.44;5099079;28;61148;-74
2023/12/18 03:04:11;;;;;;;;;21.50;19.25;;;;;-146.67;56.83;77785.41;5083289;27;62229;-74
2023/12/18 03:06:37;;;;;;;;;21.00;18.25;;;;;-146.67;57.13;77787.41;5096337;28;61907;-74
2023/12/18 03:09:02;;;;;;;;;23.00;17.00;;;;;-146.67;57.23;77791.41;5101215;28;38541;-74
2023/12/18 03:11:28;;;;;;;;;18.25;17.00;;;;;-146.67;57.44;77781.41;5101260;27;37978;-74
2023/12/18 03:13:54;;;;;;;;;20.00;16.50;;;;;-146.67;57.00;77769.44;5116964;27;38262;-74
2023/12/18 03:16:19;;;;;;;;;13.25;12.50;;;;;-146.67;57.01;77773.44;5117287;27;38454;-74
2023/12/18 03:18:45;;;;;;;;;23.00;16.00;;;;;-146.67;57.10;77777.41;5102209;28;38546;-74
2023/12/18 03:21:10;;;;;;;;;24.00;16.00;;;;;-146.67;57.34;77777.41;5116339;27;40254;-74
2023/12/18 03:23:36;;;;;;;;;20.75;10.25;;;;;-146.67;57.34;77771.44;5101123;28;38278;-74
2023/12/18 03:26:01;;;;;;;;;19.00;16.00;;;;;-146.67;57.31;77771.44;5100438;28;38347;-74
2023/12/18 03:28:27;;;;;;;;;16.75;16.25;;;;;-146.67;57.45;77755.44;5101569;28;38505;-74
2023/12/18 03:30:52;;;;;;;;;20.75;19.50;;;;;-146.67;57.20;77773.44;5100571;28;38136;-74
2023/12/18 03:33:18;;;;;;;;;22.00;18.00;;;;;-146.67;57.14;77773.44;5100911;28;38308;-74
2023/12/18 03:35:44;;;;;;;;;19.50;16.25;;;;;-146.67;57.68;77779.41;5100027;28;38288;-74
2023/12/18 03:38:09;;;;;;;;;13.50;9.00;;;;;-146.67;57.26;77789.41;5100789;27;37768;-74
2023/12/18 03:40:34;;;;;;;;;25.75;17.00;;;;;-146.67;58.08;77793.41;5086481;27;61766;-74
2023/12/18 03:43:00;;;;;;;;;34.50;23.50;;;;;-146.67;58.10;77817.38;5097222;27;61310;-74
2023/12/18 03:45:25;;;;;;;;;31.75;20.75;;;;;-146.67;58.25;77817.38;5100663;27;38266;-74
2023/12/18 03:47:50;;;;;;;;;23.75;19.75;;;;;-146.67;58.53;77813.38;5100925;27;38297;-74
2023/12/18 03:50:15;;;;;;;;;20.50;18.75;;;;;-146.67;58.50;77809.38;5099899;28;37980;-74
2023/12/18 03:52:41;;;;;;;;;22.25;17.75;;;;;-146.67;58.46;77813.38;5100788;27;38240;-74
2023/12/18 03:55:07;;;;;;;;;17.50;14.75;;;;;-146.67;58.32;77809.38;5096123;28;61212;-74
2023/12/18 03:57:32;;;;;;;;;25.00;19.75;;;;;-146.67;58.43;77809.38;5093172;27;56144;-74
2023/12/18 03:59:58;;;;;;;;;19.50;16.25;;;;;-146.67;58.17;77823.38;5094230;28;43479;-74
2023/12/18 04:02:24;;;;;;;;;28.75;20.25;;;;;-146.67;58.69;77829.38;5089655;27;61188;-74
2023/12/18 04:04:52;;;;;;;;;26.00;16.00;;;;;-146.67;58.20;77821.38;5082088;28;61898;-74
2023/12/18 04:07:18;;;;;;;;;25.75;19.50;;;;;-146.67;58.09;77831.38;5082359;28;61934;-74
2023/12/18 04:09:43;;;;;;;;;22.75;17.25;;;;;-146.67;58.72;77835.38;5081628;28;61791;-74
2023/12/18 04:12:09;;;;;;;;;25.00;19.00;;;;;-146.67;58.69;77811.38;5087796;28;61643;-75
2023/12/18 04:14:34;;;;;;;;;24.25;18.50;;;;;-146.67;58.39;77797.41;5100317;28;38263;-75
2023/12/18 04:17:00;;;;;;;;;26.25;22.25;;;;;-146.67;58.03;77787.41;5100090;28;38618;-74
2023/12/18 04:19:25;;;;;;;;;25.00;21.50;;;;;-146.67;58.09;77779.41;5094914;28;57805;-74
2023/12/18 04:21:50;;;;;;;;;21.50;18.50;;;;;-146.67;57.90;77767.44;5090809;28;60785;-74
2023/12/18 04:24:16;;;;;;;;;23.25;16.00;;;;;-146.67;57.59;77769.44;5096559;28;61414;-74
2023/12/18 04:26:43;;;;;;;;;28.25;21.50;;;;;-146.67;100.00;57155.34;5089050;28;61874;-74
2023/12/18 04:29:08;;;;;;;;;24.25;20.00;;;;;-146.67;57.47;77765.44;5102687;28;38425;-74
2023/12/18 04:31:33;;;;;;;;;25.00;20.25;;;;;-146.67;57.34;77769.44;5099854;27;38214;-74
2023/12/18 04:33:59;;;;;;;;;30.00;19.75;;;;;-146.67;57.30;77769.44;5100149;28;38375;-74
2023/12/18 04:36:24;;;;;;;;;22.25;20.00;;;;;-146.67;57.18;77777.41;5099910;27;38328;-74
2023/12/18 04:38:49;;;;;;;;;24.50;20.00;;;;;-146.67;57.20;77775.44;5099766;28;39317;-74
2023/12/18 04:41:19;;;;;;;;;20.50;16.00;;;;;-146.67;57.23;77771.44;5099769;28;37839;-75
2023/12/18 04:43:44;;;;;;;;;17.25;14.50;;;;;-146.67;57.13;77769.44;5099930;28;38180;-74
2023/12/18 04:46:10;;;;;;;;;17.75;17.25;;;;;-146.67;57.05;77779.41;5101042;27;37955;-74
2023/12/18 04:48:35;;;;;;;;;22.25;16.25;;;;;-146.67;57.13;77783.41;5103391;28;38291;-74
2023/12/18 04:51:01;;;;;;;;;26.50;18.25;;;;;-146.67;57.27;77777.41;5102895;27;37723;-74
2023/12/18 04:53:26;;;;;;;;;21.00;18.25;;;;;-146.67;56.98;77775.44;5134402;27;37854;-75
2023/12/18 04:55:52;;;;;;;;;17.25;15.00;;;;;-146.67;56.83;77785.41;5123707;27;37954;-74
2023/12/18 04:58:17;;;;;;;;;20.75;14.25;;;;;-146.67;56.85;77783.41;5123564;27;38255;-74
2023/12/18 05:00:42;;;;;;;;;26.75;15.75;;;;;-146.67;56.84;77783.41;5105546;27;38061;-74
2023/12/18 05:03:08;;;;;;;;;26.00;14.50;;;;;-146.67;56.71;77787.41;5103188;28;39364;-74
2023/12/18 05:05:33;;;;;;;;;16.75;12.50;;;;;-146.67;56.37;77779.41;5118811;27;38080;-74
2023/12/18 05:07:58;;;;;;;;;17.75;17.50;;;;;-146.67;56.43;77775.44;5103239;27;39313;-74
2023/12/18 05:10:24;;;;;;;;;16.50;15.50;;;;;-146.67;56.63;77769.44;5102917;28;37745;-74
2023/12/18 05:12:49;;;;;;;;;28.75;16.50;;;;;-146.67;56.59;77763.44;5103470;27;38483;-74
2023/12/18 05:15:14;;;;;;;;;23.50;16.25;;;;;-146.67;56.27;77757.44;5103076;27;38633;-74
2023/12/18 05:17:41;;;;;;;;;24.00;14.25;;;;;-146.67;56.39;77753.44;5118626;27;40380;-74
2023/12/18 05:20:08;;;;;;;;;21.25;14.75;;;;;-146.67;56.05;77741.47;5102700;28;37837;-74
2023/12/18 05:22:34;;;;;;;;;22.00;16.50;;;;;-146.67;56.06;77741.47;5103246;27;37939;-74
2023/12/18 05:24:59;;;;;;;;;22.75;17.25;;;;;-146.67;55.90;77755.44;5103453;28;38769;-74
2023/12/18 05:27:25;;;;;;;;;20.25;14.25;;;;;-146.67;56.03;77771.44;5102630;28;39048;-74
2023/12/18 05:29:50;;;;;;;;;18.50;14.00;;;;;-146.67;56.00;77775.44;5117725;27;44454;-74
2023/12/18 05:32:15;;;;;;;;;21.25;14.25;;;;;-146.67;55.66;77773.44;5103302;27;38488;-74
2023/12/18 05:34:41;;;;;;;;;19.25;16.75;;;;;-146.67;55.73;77795.41;5103011;28;38292;-74
2023/12/18 05:37:06;;;;;;;;;15.50;12.50;;;;;-146.67;55.90;77791.41;5108242;27;40028;-74
2023/12/18 05:39:32;;;;;;;;;18.75;10.50;;;;;-146.67;56.07;77791.41;5123447;27;38904;-74
2023/12/18 05:41:57;;;;;;;;;28.75;16.50;;;;;-146.67;55.94;77777.41;5123100;27;38344;-74
2023/12/18 05:44:23;;;;;;;;;20.00;16.00;;;;;-146.67;55.98;77785.41;5103396;27;38629;-74
2023/12/18 05:46:48;;;;;;;;;21.00;14.50;;;;;-146.67;55.85;77783.41;5102302;28;38041;-74
2023/12/18 05:49:13;;;;;;;;;23.75;16.00;;;;;-146.67;55.94;77785.41;5102858;27;37753;-74
2023/12/18 05:51:43;;;;;;;;;21.00;19.50;;;;;-146.67;55.89;77791.41;5102598;28;38354;-74
2023/12/18 05:54:08;;;;;;;;;23.25;14.00;;;;;-146.67;56.13;77789.41;5102331;27;38320;-74
2023/12/18 05:56:34;;;;;;;;;19.00;13.25;;;;;-146.67;56.49;77773.44;5100622;28;40454;-74
2023/12/18 05:59:00;;;;;;;;;18.25;16.00;;;;;-146.67;56.05;77773.44;5101720;27;37767;-74
2023/12/18 06:01:25;;;;;;;;;17.75;14.50;;;;;-146.67;56.11;77771.44;5102353;28;37820;-74
2023/12/18 06:03:50;;;;;;;;;17.50;15.75;;;;;-146.67;56.21;77765.44;5102229;28;38316;-74
2023/12/18 06:06:15;;;;;;;;;21.50;16.50;;;;;-146.67;55.91;77755.44;5102150;27;38068;-74
2023/12/18 06:08:41;;;;;;;;;18.00;16.00;;;;;-146.67;55.88;77761.44;5102528;28;38474;-74
2023/12/18 06:11:06;;;;;;;;;15.00;8.75;;;;;-146.67;55.79;77767.44;5101093;28;38204;-74
2023/12/18 06:13:32;;;;;;;;;22.00;17.75;;;;;-146.67;55.77;77771.44;5101860;27;38364;-75
2023/12/18 06:15:58;;;;;;;;;21.50;12.50;;;;;-146.67;55.66;77779.41;5100225;28;40288;-76
2023/12/18 06:18:31;;;;;;;;;23.00;20.25;;;;;-146.67;56.03;77791.41;5102414;28;37673;-75
2023/12/18 06:21:02;;;;;;;;;23.00;16.00;;;;;-146.67;55.88;77787.41;5102558;28;37836;-76
2023/12/18 06:23:28;;;;;;;;;24.50;18.50;;;;;-146.67;56.24;77793.41;5102265;28;38681;-76
2023/12/18 06:25:53;;;;;;;;;13.50;10.50;;;;;-146.67;55.98;77787.41;5101534;28;38347;-76
2023/12/18 06:28:19;;;;;;;;;23.00;17.00;;;;;-146.67;56.21;77781.41;5100465;28;37797;-76
2023/12/18 06:30:44;;;;;;;;;21.00;16.50;;;;;-146.67;55.80;77771.44;5100701;28;38850;-76
2023/12/18 06:33:12;;;;;;;;;22.25;17.25;;;;;-146.67;55.67;77771.44;5113958;27;38332;-76
2023/12/18 06:35:38;;;;;;;;;26.75;16.00;;;;;-146.67;55.77;77771.44;5089914;28;38374;-76
2023/12/18 06:38:03;;;;;;;;;20.00;13.00;;;;;-146.67;55.69;77777.41;5090206;28;38400;-76
2023/12/18 06:40:29;;;;;;;;;18.00;17.25;;;;;-146.67;55.66;77781.41;5094980;28;61815;-76
2023/12/18 06:42:54;;;;;;;;;21.25;16.25;;;;;-146.67;55.59;77785.41;5084917;27;61907;-76
2023/12/18 06:45:19;;;;;;;;;21.50;17.25;;;;;-146.67;55.56;77787.41;5082870;28;63165;-76
2023/12/18 06:47:45;;;;;;;;;22.50;13.75;;;;;-146.67;56.01;77807.41;5081971;28;62058;-75
2023/12/18 06:50:10;;;;;;;;;22.00;20.00;;;;;-146.67;56.17;77811.38;5064955;27;62513;-74
2023/12/18 06:52:37;;;;;;;;;25.50;20.00;;;;;-146.67;56.38;77815.38;5078540;28;62161;-75
2023/12/18 06:55:02;;;;;;;;;22.00;16.00;;;;;-146.67;56.38;77813.38;5071160;28;62721;-75
2023/12/18 06:57:28;;;;;;;;;27.25;20.50;;;;;-146.67;56.00;77815.38;5092918;28;61265;-74
2023/12/18 06:59:53;;;;;;;;;22.00;19.00;;;;;-146.67;56.17;77829.38;5080066;28;59681;-74
2023/12/18 07:02:19;;;;;;;;;15.75;13.75;;;;;-146.67;56.43;77823.38;5109966;27;38572;-74
2023/12/18 07:04:44;;;;;;;;;21.00;15.25;;;;;-146.67;55.93;77821.38;5121446;27;38442;-74
2023/12/18 07:07:10;;;;;;;;;22.00;14.75;;;;;-146.67;55.72;77821.38;5121548;27;38607;-74
2023/12/18 07:09:35;;;;;;;;;24.00;17.25;;;;;-146.67;55.86;77825.38;5113676;27;37798;-73
2023/12/18 07:12:00;;;;;;;;;26.25;19.50;;;;;-146.67;55.98;77853.34;5100707;27;38414;-74
2023/12/18 07:14:26;;;;;;;;;29.00;21.75;;;;;-146.67;56.21;77885.31;5100933;28;38126;-74
2023/12/18 07:16:53;;;;;;;;;31.25;21.00;;;;;-146.67;56.71;77917.28;5100648;28;38253;-74
2023/12/18 07:19:18;;;;;;;;;23.50;20.25;;;;;-146.67;56.97;77953.25;5098470;27;53826;-74
2023/12/18 07:21:44;;;;;;;;;23.25;20.00;;;;;-146.67;57.41;77981.22;5101249;27;38554;-74
2023/12/18 07:24:09;;;;;;;;;31.50;22.00;;;;;-146.67;57.47;78011.22;5095724;28;62226;-74
2023/12/18 07:26:34;;;;;;;;;23.50;17.00;;;;;-146.67;100.00;57155.34;5120342;28;46305;-73
2023/12/18 07:29:00;;;;;;;;;36.00;25.25;;;;;-146.67;100.00;57155.34;5127786;27;8860;-74
2023/12/18 07:31:25;;;;;;;;;23.00;19.00;;;;;-146.67;100.00;57155.34;5124528;27;8779;-74
2023/12/18 07:33:51;;;;;;;;;22.25;19.25;;;;;-146.67;100.00;57155.34;5123477;28;8818;-74
2023/12/18 07:36:16;;;;;;;;;11.50;11.50;;;;;-146.67;100.00;57155.34;5121657;27;8848;-72
2023/12/18 07:38:42;;;;;;;;;20.25;14.25;;;;;-146.67;100.00;57155.34;5122624;28;8954;-73
2023/12/18 07:41:07;;;;;;;;;23.50;17.25;;;;;-146.67;59.08;78057.16;5120212;27;42706;-72
2023/12/18 07:43:33;;;;;;;;;32.25;25.00;;;;;-146.67;58.97;78075.16;5086071;28;61833;-73
2023/12/18 07:45:58;;;;;;;;;19.25;16.00;;;;;-146.67;58.62;78073.16;5098155;28;61800;-73
2023/12/18 07:48:24;;;;;;;;;6.50;4.00;;;;;-146.67;59.16;78077.16;5099834;28;38634;-73
2023/12/18 07:50:50;;;;;;;;;19.50;15.00;;;;;-146.67;59.28;78081.16;5115571;27;38225;-73
2023/12/18 07:53:16;;;;;;;;;17.75;17.00;;;;;-146.67;59.27;78085.13;5106212;27;40256;-72
2023/12/18 07:55:42;;;;;;;;;17.25;12.50;;;;;-146.67;58.96;78091.13;5098635;28;38321;-73
2023/12/18 07:58:07;;;;;;;;;25.75;18.00;;;;;-146.67;59.39;78095.13;5106110;27;37780;-73
2023/12/18 08:00:33;;;;;;;;;23.75;18.50;;;;;-146.67;59.21;78101.13;5101569;27;38290;-73
2023/12/18 08:03:01;;;;;;;;;19.75;17.25;;;;;-146.67;58.84;78105.13;5105718;27;38412;-73
2023/12/18 08:05:27;;;;;;;;;25.00;18.50;;;;;-146.67;59.08;78109.13;5119003;27;38510;-73
2023/12/18 08:07:53;;;;;;;;;18.25;15.50;;;;;-146.67;59.23;78095.13;5116053;27;38421;-73
2023/12/18 08:10:18;;;;;;;;;15.75;13.50;;;;;-146.67;60.89;78087.13;5099943;27;38399;-72
2023/12/18 08:12:43;;;;;;;;;24.25;18.00;;;;;-146.67;58.72;78091.13;5099424;27;38077;-73
2023/12/18 08:15:09;;;;;;;;;18.25;14.00;;;;;-146.67;59.85;78079.16;5099930;27;37761;-72
2023/12/18 08:17:38;;;;;;;;;13.25;12.00;;;;;-146.67;59.52;78057.16;5114956;27;38636;-72
2023/12/18 08:20:06;;;;;;;;;23.00;17.50;;;;;-146.67;58.53;78055.16;5099620;27;37758;-72
2023/12/18 08:22:31;;;;;;;;;16.50;16.25;;;;;-146.67;58.75;78037.19;5115315;27;40226;-73
2023/12/18 08:24:57;;;;;;;;;28.00;22.00;;;;;-146.67;57.62;78025.19;5098825;27;38361;-72
2023/12/18 08:27:22;;;;;;;;;20.00;18.50;;;;;-146.67;57.67;78039.19;5100047;27;38295;-73
2023/12/18 08:29:47;;;;;;;;;21.25;17.00;;;;;-146.67;57.01;78043.19;5100327;27;38487;-73
2023/12/18 08:32:13;;;;;;;;;15.50;13.25;;;;;-146.67;57.06;78053.16;5099619;27;39194;-73
2023/12/18 08:34:38;;;;;;;;;15.75;15.75;;;;;-146.67;57.92;78047.16;5099938;27;38297;-73
2023/12/18 08:37:05;;;;;;;;;20.00;15.25;;;;;-146.67;57.66;78027.19;5099741;27;38330;-73
2023/12/18 08:39:31;;;;;;;;;20.75;12.75;;;;;-146.67;56.88;78009.22;5099418;28;38612;-73
2023/12/18 08:41:57;;;;;;;;;21.25;16.50;;;;;-146.67;56.91;78003.22;5123456;27;40275;-74
2023/12/18 08:44:22;;;;;;;;;16.00;10.50;;;;;-146.67;56.10;77993.22;5120324;27;38301;-73
2023/12/18 08:46:48;;;;;;;;;17.50;12.75;;;;;-146.67;56.29;77993.22;5113781;27;38582;-73
2023/12/18 08:49:13;;;;;;;;;18.50;14.25;;;;;-146.67;55.65;77993.22;5099262;27;38449;-73
2023/12/18 08:51:38;;;;;;;;;13.50;12.00;;;;;-146.67;55.52;77989.22;5114670;27;39978;-75
2023/12/18 08:54:05;;;;;;;;;12.50;10.50;;;;;-146.67;56.01;77979.22;5099023;28;38588;-73
2023/12/18 08:56:34;;;;;;;;;19.25;12.00;;;;;-146.67;55.33;77981.22;5099578;28;38400;-73
2023/12/18 08:58:59;;;;;;;;;15.75;12.00;;;;;-146.67;55.33;77985.22;5099913;27;38645;-73
2023/12/18 09:01:25;;;;;;;;;29.25;18.75;;;;;-146.67;55.14;77995.22;5105138;27;37971;-72
2023/12/18 09:03:51;;;;;;;;;22.25;19.25;;;;;-146.67;55.57;78031.19;5098778;27;38217;-73
2023/12/18 09:06:16;;;;;;;;;26.25;15.50;;;;;-146.67;55.94;78037.19;5098790;28;38290;-73
2023/12/18 09:08:41;;;;;;;;;30.25;23.00;;;;;-146.67;55.46;78049.16;5099836;28;38202;-72
2023/12/18 09:11:08;;;;;;;;;28.50;21.25;;;;;-146.67;55.40;78047.16;5099219;27;39232;-73
2023/12/18 09:13:34;;;;;;;;;21.00;15.00;;;;;-146.67;55.17;78047.16;5099438;28;37767;-73
2023/12/18 09:16:02;;;;;;;;;15.50;15.50;;;;;-146.67;55.70;78069.16;5099560;27;37819;-73
2023/12/18 09:18:27;;;;;;;;;23.50;21.50;;;;;-146.67;55.79;78045.19;5099668;27;38327;-73
2023/12/18 09:20:52;;;;;;;;;20.25;19.00;;;;;-146.67;55.24;78033.19;5098130;28;39347;-72
2023/12/18 09:23:18;;;;;;;;;23.75;15.75;;;;;-146.67;55.45;78025.19;5099641;28;37764;-73
2023/12/18 09:25:43;;;;;;;;;24.25;19.00;;;;;-146.67;55.06;78035.19;5099381;28;38766;-72
2023/12/18 09:28:08;;;;;;;;;15.25;12.75;;;;;-146.67;54.74;78025.19;5099641;28;38334;-73
2023/12/18 09:30:34;;;;;;;;;15.50;11.25;;;;;-146.67;54.67;78025.19;5099196;28;38549;-73
2023/12/18 09:32:59;;;;;;;;;17.25;13.25;;;;;-146.67;54.98;78005.22;5116351;27;38670;-73
2023/12/18 09:35:25;;;;;;;;;30.00;17.50;;;;;-146.67;54.47;77979.22;5102709;27;38269;-72
2023/12/18 09:37:50;;;;;;;;;21.00;16.00;;;;;-146.67;54.10;77971.25;5102897;27;37774;-72
2023/12/18 09:40:16;;;;;;;;;19.50;15.00;;;;;-146.67;53.82;77969.25;5102391;28;38480;-72
2023/12/18 09:42:41;;;;;;;;;14.75;13.25;;;;;-146.67;53.59;77969.25;5101274;28;38467;-73
2023/12/18 09:45:08;;;;;;;;;20.50;14.50;;;;;-146.67;54.04;77977.22;5102878;28;37640;-73
2023/12/18 09:47:34;;;;;;;;;24.50;16.25;;;;;-146.67;53.53;77967.25;5102869;27;38262;-73
2023/12/18 09:49:59;;;;;;;;;23.00;20.25;;;;;-146.67;53.33;77987.22;5101523;28;38235;-73
2023/12/18 09:52:30;;;;;;;;;23.25;19.75;;;;;-146.67;53.89;78017.19;5102881;28;38260;-72
2023/12/18 09:54:59;;;;;;;;;20.75;16.00;;;;;-146.67;54.51;78025.19;5102189;27;37852;-73
2023/12/18 09:57:25;;;;;;;;;20.50;15.25;;;;;-146.67;54.47;77997.22;5102594;27;38467;-72
2023/12/18 09:59:50;;;;;;;;;16.00;11.25;;;;;-146.67;54.06;78001.22;5096449;28;38577;-73
2023/12/18 10:02:17;;;;;;;;;24.75;18.25;;;;;-146.67;54.00;78009.22;5102652;27;37692;-73
2023/12/18 10:04:43;;;;;;;;;13.25;9.75;;;;;-146.67;53.97;78011.22;5101753;27;38410;-73
2023/12/18 10:07:08;;;;;;;;;22.25;20.00;;;;;-146.67;53.95;78021.19;5102671;28;38309;-72
2023/12/18 10:09:35;;;;;;;;;27.00;21.00;;;;;-146.67;54.20;78039.19;5101762;28;38462;-72
2023/12/18 10:12:03;;;;;;;;;16.00;14.00;;;;;-146.67;54.50;78055.16;5102175;28;38395;-73
2023/12/18 10:14:28;;;;;;;;;22.00;18.25;;;;;-146.67;54.77;78063.16;5100966;28;38298;-73
2023/12/18 10:16:55;;;;;;;;;22.25;18.25;;;;;-146.67;54.37;78067.16;5102027;28;38582;-72
2023/12/18 10:19:24;;;;;;;;;20.75;15.50;;;;;-146.67;55.11;78057.16;5101163;28;39255;-73
2023/12/18 10:21:49;;;;;;;;;12.50;11.00;;;;;-146.67;54.73;78039.19;5102287;27;38409;-72
2023/12/18 10:24:15;;;;;;;;;18.50;13.00;;;;;-146.67;54.37;78017.19;5102119;27;38352;-72
2023/12/18 10:26:41;;;;;;;;;20.00;12.75;;;;;-146.67;54.12;78005.22;5102191;28;37946;-72
2023/12/18 10:29:07;;;;;;;;;17.00;11.25;;;;;-146.67;53.61;77993.22;5101826;28;38318;-72
2023/12/18 10:31:34;;;;;;;;;18.25;15.00;;;;;-146.67;53.36;77989.22;5102199;27;37773;-72
2023/12/18 10:34:02;;;;;;;;;17.00;14.25;;;;;-146.67;53.22;77985.22;5117360;27;38350;-73
2023/12/18 10:36:32;;;;;;;;;22.50;19.00;;;;;-146.67;53.40;78007.22;5102023;27;38427;-73
2023/12/18 10:39:00;;;;;;;;;12.25;11.75;;;;;-146.67;53.26;78031.19;5117249;27;40372;-73
2023/12/18 10:41:27;;;;;;;;;9.75;6.50;;;;;-146.67;54.06;78049.16;5101801;27;38536;-73
2023/12/18 10:43:55;;;;;;;;;17.75;15.50;;;;;-146.67;54.37;78031.19;5101404;28;38496;-73
2023/12/18 10:46:24;;;;;;;;;25.75;14.00;;;;;-146.67;54.01;78007.22;5101873;28;38534;-73
2023/12/18 10:48:51;;;;;;;;;15.00;12.25;;;;;-146.67;53.53;77997.22;5101183;28;38282;-72
2023/12/18 10:51:20;;;;;;;;;20.25;16.00;;;;;-146.67;53.44;77987.22;5101144;28;38363;-73
2023/12/18 10:53:47;;;;;;;;;14.75;14.75;;;;;-146.67;53.09;77979.22;5101698;28;37730;-73
2023/12/18 10:56:16;;;;;;;;;32.50;27.50;;;;;-146.67;52.63;77987.22;5101362;28;38734;-73